sensor_id;sensor_type;location;lat;lon;timestamp;P1;durP1;ratioP1;P2;durP2;ratioP2
78542;SDS011;67836;52.430;14.446;2023-05-29T00:00:25;8.85;;;3.08;;
78542;SDS011;67836;52.430;14.446;2023-05-29T00:03:09;9.52;;;3.25;;
78542;SDS011;67836;52.430;14.446;2023-05-29T00:08:37;10.88;;;2.63;;
78542;SDS011;67836;52.430;14.446;2023-05-29T00:11:21;10.38;;;3.35;;
78542;SDS011;67836;52.430;14.446;2023-05-29T00:14:06;10.02;;;3.13;;
78542;SDS011;67836;52.430;14.446;2023-05-29T00:16:51;6.97;;;2.88;;
78542;SDS011;67836;52.430;14.446;2023-05-29T00:19:36;6.20;;;2.85;;
78542;SDS011;67836;52.430;14.446;2023-05-29T00:22:20;8.23;;;3.17;;
78542;SDS011;67836;52.430;14.446;2023-05-29T00:25:04;7.80;;;2.95;;
78542;SDS011;67836;52.430;14.446;2023-05-29T00:27:48;9.38;;;2.92;;
78542;SDS011;67836;52.430;14.446;2023-05-29T00:30:33;8.48;;;2.72;;
78542;SDS011;67836;52.430;14.446;2023-05-29T00:33:17;7.15;;;2.42;;
78542;SDS011;67836;52.430;14.446;2023-05-29T00:36:02;7.43;;;2.58;;
78542;SDS011;67836;52.430;14.446;2023-05-29T00:38:46;9.32;;;2.65;;
78542;SDS011;67836;52.430;14.446;2023-05-29T00:41:30;9.38;;;2.75;;
78542;SDS011;67836;52.430;14.446;2023-05-29T00:44:14;7.10;;;2.33;;
78542;SDS011;67836;52.430;14.446;2023-05-29T00:49:42;7.18;;;2.75;;
78542;SDS011;67836;52.430;14.446;2023-05-29T00:52:26;7.57;;;3.10;;
78542;SDS011;67836;52.430;14.446;2023-05-29T00:55:10;8.80;;;2.60;;
78542;SDS011;67836;52.430;14.446;2023-05-29T00:57:55;10.20;;;3.05;;
78542;SDS011;67836;52.430;14.446;2023-05-29T01:00:39;8.90;;;3.30;;
78542;SDS011;67836;52.430;14.446;2023-05-29T01:03:23;9.63;;;3.13;;
78542;SDS011;67836;52.430;14.446;2023-05-29T01:06:07;10.15;;;2.83;;
78542;SDS011;67836;52.430;14.446;2023-05-29T01:18:04;7.97;;;2.67;;
78542;SDS011;67836;52.430;14.446;2023-05-29T01:27:42;6.53;;;2.35;;
78542;SDS011;67836;52.430;14.446;2023-05-29T01:30:28;8.63;;;2.75;;
78542;SDS011;67836;52.430;14.446;2023-05-29T01:33:14;10.57;;;3.60;;
78542;SDS011;67836;52.430;14.446;2023-05-29T01:35:58;7.93;;;3.20;;
78542;SDS011;67836;52.430;14.446;2023-05-29T01:41:26;6.95;;;2.75;;
78542;SDS011;67836;52.430;14.446;2023-05-29T01:44:10;8.23;;;2.80;;
78542;SDS011;67836;52.430;14.446;2023-05-29T01:46:56;9.07;;;3.10;;
78542;SDS011;67836;52.430;14.446;2023-05-29T01:49:40;7.85;;;2.95;;
78542;SDS011;67836;52.430;14.446;2023-05-29T01:52:24;10.52;;;3.25;;
78542;SDS011;67836;52.430;14.446;2023-05-29T01:55:08;9.25;;;2.72;;
78542;SDS011;67836;52.430;14.446;2023-05-29T01:57:53;9.95;;;3.00;;
78542;SDS011;67836;52.430;14.446;2023-05-29T02:00:37;9.32;;;2.97;;
78542;SDS011;67836;52.430;14.446;2023-05-29T02:03:22;9.75;;;2.80;;
78542;SDS011;67836;52.430;14.446;2023-05-29T02:06:06;8.93;;;3.42;;
78542;SDS011;67836;52.430;14.446;2023-05-29T02:08:50;6.85;;;2.75;;
78542;SDS011;67836;52.430;14.446;2023-05-29T02:11:34;10.73;;;3.03;;
78542;SDS011;67836;52.430;14.446;2023-05-29T02:14:18;7.47;;;3.08;;
78542;SDS011;67836;52.430;14.446;2023-05-29T02:17:02;8.40;;;3.03;;
78542;SDS011;67836;52.430;14.446;2023-05-29T02:19:46;10.15;;;3.30;;
78542;SDS011;67836;52.430;14.446;2023-05-29T02:22:31;7.25;;;2.63;;
78542;SDS011;67836;52.430;14.446;2023-05-29T02:25:15;8.63;;;2.92;;
78542;SDS011;67836;52.430;14.446;2023-05-29T02:27:59;9.45;;;2.97;;
78542;SDS011;67836;52.430;14.446;2023-05-29T02:30:43;7.15;;;2.63;;
78542;SDS011;67836;52.430;14.446;2023-05-29T02:33:27;7.93;;;3.08;;
78542;SDS011;67836;52.430;14.446;2023-05-29T02:36:12;7.88;;;3.10;;
78542;SDS011;67836;52.430;14.446;2023-05-29T02:38:56;8.00;;;2.90;;
78542;SDS011;67836;52.430;14.446;2023-05-29T02:44:24;10.02;;;3.25;;
78542;SDS011;67836;52.430;14.446;2023-05-29T02:47:09;11.85;;;3.13;;
78542;SDS011;67836;52.430;14.446;2023-05-29T02:49:53;9.80;;;2.92;;
78542;SDS011;67836;52.430;14.446;2023-05-29T02:52:36;8.95;;;2.95;;
78542;SDS011;67836;52.430;14.446;2023-05-29T02:59:07;8.43;;;2.60;;
78542;SDS011;67836;52.430;14.446;2023-05-29T03:01:51;8.02;;;2.92;;
78542;SDS011;67836;52.430;14.446;2023-05-29T03:04:36;8.10;;;3.03;;
78542;SDS011;67836;52.430;14.446;2023-05-29T03:07:20;9.25;;;3.38;;
78542;SDS011;67836;52.430;14.446;2023-05-29T03:12:48;9.48;;;2.85;;
78542;SDS011;67836;52.430;14.446;2023-05-29T03:15:31;8.23;;;2.92;;
78542;SDS011;67836;52.430;14.446;2023-05-29T03:18:15;8.88;;;3.50;;
78542;SDS011;67836;52.430;14.446;2023-05-29T03:20:59;5.57;;;2.78;;
78542;SDS011;67836;52.430;14.446;2023-05-29T03:23:43;8.90;;;2.80;;
78542;SDS011;67836;52.430;14.446;2023-05-29T03:26:27;8.35;;;3.05;;
78542;SDS011;67836;52.430;14.446;2023-05-29T03:29:12;8.00;;;3.50;;
78542;SDS011;67836;52.430;14.446;2023-05-29T03:32:13;9.02;;;3.08;;
78542;SDS011;67836;52.430;14.446;2023-05-29T03:34:57;9.60;;;3.30;;
78542;SDS011;67836;52.430;14.446;2023-05-29T03:37:41;6.35;;;2.42;;
78542;SDS011;67836;52.430;14.446;2023-05-29T03:40:26;8.02;;;2.88;;
78542;SDS011;67836;52.430;14.446;2023-05-29T03:43:10;12.15;;;3.00;;
78542;SDS011;67836;52.430;14.446;2023-05-29T03:45:54;7.55;;;2.30;;
78542;SDS011;67836;52.430;14.446;2023-05-29T03:48:38;7.97;;;2.58;;
78542;SDS011;67836;52.430;14.446;2023-05-29T03:51:22;8.40;;;2.90;;
78542;SDS011;67836;52.430;14.446;2023-05-29T03:57:53;10.40;;;3.05;;
78542;SDS011;67836;52.430;14.446;2023-05-29T04:00:36;9.00;;;3.20;;
78542;SDS011;67836;52.430;14.446;2023-05-29T04:03:20;8.75;;;3.00;;
78542;SDS011;67836;52.430;14.446;2023-05-29T04:06:05;9.68;;;2.88;;
78542;SDS011;67836;52.430;14.446;2023-05-29T04:08:50;10.30;;;3.03;;
78542;SDS011;67836;52.430;14.446;2023-05-29T04:11:34;8.40;;;2.75;;
78542;SDS011;67836;52.430;14.446;2023-05-29T04:14:19;8.52;;;2.63;;
78542;SDS011;67836;52.430;14.446;2023-05-29T04:17:03;8.13;;;3.30;;
78542;SDS011;67836;52.430;14.446;2023-05-29T04:22:31;10.23;;;3.17;;
78542;SDS011;67836;52.430;14.446;2023-05-29T04:25:15;9.57;;;3.58;;
78542;SDS011;67836;52.430;14.446;2023-05-29T04:27:59;10.75;;;3.42;;
78542;SDS011;67836;52.430;14.446;2023-05-29T04:30:45;8.18;;;2.67;;
78542;SDS011;67836;52.430;14.446;2023-05-29T04:33:30;10.30;;;3.40;;
78542;SDS011;67836;52.430;14.446;2023-05-29T04:38:57;7.90;;;3.08;;
78542;SDS011;67836;52.430;14.446;2023-05-29T04:41:42;11.27;;;3.55;;
78542;SDS011;67836;52.430;14.446;2023-05-29T04:44:26;7.35;;;2.58;;
78542;SDS011;67836;52.430;14.446;2023-05-29T04:47:12;6.57;;;3.30;;
78542;SDS011;67836;52.430;14.446;2023-05-29T04:49:59;4.30;;;1.70;;
78542;SDS011;67836;52.430;14.446;2023-05-29T04:52:43;5.80;;;2.38;;
78542;SDS011;67836;52.430;14.446;2023-05-29T04:55:27;6.72;;;2.15;;
78542;SDS011;67836;52.430;14.446;2023-05-29T04:58:11;8.55;;;3.00;;
78542;SDS011;67836;52.430;14.446;2023-05-29T05:00:56;8.10;;;2.45;;
78542;SDS011;67836;52.430;14.446;2023-05-29T05:03:43;1.98;;;0.98;;
78542;SDS011;67836;52.430;14.446;2023-05-29T05:06:27;7.43;;;2.42;;
78542;SDS011;67836;52.430;14.446;2023-05-29T05:09:12;8.20;;;2.63;;
78542;SDS011;67836;52.430;14.446;2023-05-29T05:14:40;4.78;;;1.92;;
78542;SDS011;67836;52.430;14.446;2023-05-29T05:17:24;9.32;;;3.00;;
78542;SDS011;67836;52.430;14.446;2023-05-29T05:20:08;6.47;;;2.50;;
78542;SDS011;67836;52.430;14.446;2023-05-29T05:26:39;10.52;;;3.22;;
78542;SDS011;67836;52.430;14.446;2023-05-29T05:29:24;6.13;;;1.85;;
78542;SDS011;67836;52.430;14.446;2023-05-29T05:32:08;7.18;;;2.25;;
78542;SDS011;67836;52.430;14.446;2023-05-29T05:37:35;7.80;;;2.90;;
78542;SDS011;67836;52.430;14.446;2023-05-29T05:40:19;6.22;;;2.53;;
78542;SDS011;67836;52.430;14.446;2023-05-29T05:43:04;6.15;;;1.90;;
78542;SDS011;67836;52.430;14.446;2023-05-29T05:45:49;7.68;;;3.10;;
78542;SDS011;67836;52.430;14.446;2023-05-29T05:48:33;8.13;;;3.53;;
78542;SDS011;67836;52.430;14.446;2023-05-29T05:51:17;9.35;;;2.95;;
78542;SDS011;67836;52.430;14.446;2023-05-29T05:54:02;6.47;;;3.00;;
78542;SDS011;67836;52.430;14.446;2023-05-29T05:56:47;6.85;;;2.95;;
78542;SDS011;67836;52.430;14.446;2023-05-29T05:59:31;10.13;;;2.80;;
78542;SDS011;67836;52.430;14.446;2023-05-29T06:02:15;8.65;;;3.22;;
78542;SDS011;67836;52.430;14.446;2023-05-29T06:04:59;8.07;;;3.00;;
78542;SDS011;67836;52.430;14.446;2023-05-29T06:07:43;5.32;;;2.53;;
78542;SDS011;67836;52.430;14.446;2023-05-29T06:10:27;8.85;;;2.97;;
78542;SDS011;67836;52.430;14.446;2023-05-29T06:13:12;4.55;;;2.00;;
78542;SDS011;67836;52.430;14.446;2023-05-29T06:15:56;8.30;;;2.92;;
78542;SDS011;67836;52.430;14.446;2023-05-29T06:18:40;9.63;;;2.78;;
78542;SDS011;67836;52.430;14.446;2023-05-29T06:21:24;5.47;;;1.92;;
78542;SDS011;67836;52.430;14.446;2023-05-29T06:24:08;6.63;;;2.85;;
78542;SDS011;67836;52.430;14.446;2023-05-29T06:26:52;6.38;;;2.47;;
78542;SDS011;67836;52.430;14.446;2023-05-29T06:29:36;7.82;;;3.15;;
78542;SDS011;67836;52.430;14.446;2023-05-29T06:32:20;6.78;;;2.90;;
78542;SDS011;67836;52.430;14.446;2023-05-29T06:35:04;8.15;;;3.15;;
78542;SDS011;67836;52.430;14.446;2023-05-29T06:37:49;6.30;;;2.58;;
78542;SDS011;67836;52.430;14.446;2023-05-29T06:40:33;4.90;;;1.95;;
78542;SDS011;67836;52.430;14.446;2023-05-29T06:43:17;6.88;;;2.20;;
78542;SDS011;67836;52.430;14.446;2023-05-29T06:46:01;7.85;;;2.70;;
78542;SDS011;67836;52.430;14.446;2023-05-29T06:48:45;6.70;;;2.60;;
78542;SDS011;67836;52.430;14.446;2023-05-29T06:51:30;7.03;;;2.53;;
78542;SDS011;67836;52.430;14.446;2023-05-29T06:54:16;5.05;;;2.10;;
78542;SDS011;67836;52.430;14.446;2023-05-29T06:57:00;4.75;;;2.05;;
78542;SDS011;67836;52.430;14.446;2023-05-29T06:59:44;5.38;;;2.15;;
78542;SDS011;67836;52.430;14.446;2023-05-29T07:02:28;5.90;;;2.30;;
78542;SDS011;67836;52.430;14.446;2023-05-29T07:05:12;6.25;;;2.20;;
78542;SDS011;67836;52.430;14.446;2023-05-29T07:07:57;6.38;;;1.67;;
78542;SDS011;67836;52.430;14.446;2023-05-29T07:10:40;5.80;;;2.20;;
78542;SDS011;67836;52.430;14.446;2023-05-29T07:13:25;5.78;;;1.95;;
78542;SDS011;67836;52.430;14.446;2023-05-29T07:16:10;3.83;;;1.45;;
78542;SDS011;67836;52.430;14.446;2023-05-29T07:18:54;3.95;;;1.58;;
78542;SDS011;67836;52.430;14.446;2023-05-29T07:21:38;4.82;;;1.90;;
78542;SDS011;67836;52.430;14.446;2023-05-29T07:24:22;4.75;;;1.80;;
78542;SDS011;67836;52.430;14.446;2023-05-29T07:27:06;4.93;;;1.85;;
78542;SDS011;67836;52.430;14.446;2023-05-29T07:29:50;5.05;;;1.42;;
78542;SDS011;67836;52.430;14.446;2023-05-29T07:32:34;3.97;;;1.67;;
78542;SDS011;67836;52.430;14.446;2023-05-29T07:35:19;4.55;;;1.65;;
78542;SDS011;67836;52.430;14.446;2023-05-29T07:38:03;4.55;;;1.58;;
78542;SDS011;67836;52.430;14.446;2023-05-29T07:40:47;4.63;;;1.90;;
78542;SDS011;67836;52.430;14.446;2023-05-29T07:43:31;3.90;;;1.60;;
78542;SDS011;67836;52.430;14.446;2023-05-29T07:46:16;5.05;;;1.70;;
78542;SDS011;67836;52.430;14.446;2023-05-29T07:49:00;3.17;;;1.60;;
78542;SDS011;67836;52.430;14.446;2023-05-29T07:51:44;3.45;;;1.35;;
78542;SDS011;67836;52.430;14.446;2023-05-29T07:54:28;3.30;;;1.40;;
78542;SDS011;67836;52.430;14.446;2023-05-29T07:57:12;4.05;;;1.40;;
78542;SDS011;67836;52.430;14.446;2023-05-29T07:59:56;4.53;;;1.70;;
78542;SDS011;67836;52.430;14.446;2023-05-29T08:02:40;5.60;;;1.83;;
78542;SDS011;67836;52.430;14.446;2023-05-29T08:05:26;3.60;;;1.60;;
78542;SDS011;67836;52.430;14.446;2023-05-29T08:08:10;2.72;;;1.25;;
78542;SDS011;67836;52.430;14.446;2023-05-29T08:10:56;3.42;;;1.30;;
78542;SDS011;67836;52.430;14.446;2023-05-29T08:13:40;3.63;;;1.30;;
78542;SDS011;67836;52.430;14.446;2023-05-29T08:16:24;3.53;;;1.30;;
78542;SDS011;67836;52.430;14.446;2023-05-29T08:19:08;3.35;;;1.30;;
78542;SDS011;67836;52.430;14.446;2023-05-29T08:21:53;4.07;;;1.42;;
78542;SDS011;67836;52.430;14.446;2023-05-29T08:24:37;2.97;;;1.50;;
78542;SDS011;67836;52.430;14.446;2023-05-29T08:27:21;3.95;;;1.63;;
78542;SDS011;67836;52.430;14.446;2023-05-29T08:30:05;4.07;;;1.38;;
78542;SDS011;67836;52.430;14.446;2023-05-29T08:32:49;3.08;;;1.17;;
78542;SDS011;67836;52.430;14.446;2023-05-29T08:35:34;4.57;;;1.60;;
78542;SDS011;67836;52.430;14.446;2023-05-29T08:38:18;5.03;;;1.50;;
78542;SDS011;67836;52.430;14.446;2023-05-29T08:41:04;3.47;;;1.27;;
78542;SDS011;67836;52.430;14.446;2023-05-29T08:43:48;5.00;;;1.60;;
78542;SDS011;67836;52.430;14.446;2023-05-29T08:46:33;3.25;;;1.38;;
78542;SDS011;67836;52.430;14.446;2023-05-29T08:49:17;4.07;;;1.50;;
78542;SDS011;67836;52.430;14.446;2023-05-29T08:52:06;3.58;;;1.52;;
78542;SDS011;67836;52.430;14.446;2023-05-29T08:54:54;4.95;;;1.80;;
78542;SDS011;67836;52.430;14.446;2023-05-29T08:57:38;4.30;;;1.63;;
78542;SDS011;67836;52.430;14.446;2023-05-29T09:00:23;4.13;;;1.40;;
78542;SDS011;67836;52.430;14.446;2023-05-29T09:03:12;6.07;;;1.70;;
78542;SDS011;67836;52.430;14.446;2023-05-29T09:05:59;3.67;;;1.27;;
78542;SDS011;67836;52.430;14.446;2023-05-29T09:08:44;30.42;;;28.23;;
78542;SDS011;67836;52.430;14.446;2023-05-29T09:11:28;72.32;;;68.88;;
78542;SDS011;67836;52.430;14.446;2023-05-29T09:17:17;1999.90;;;999.90;;
78542;SDS011;67836;52.430;14.446;2023-05-29T09:20:01;1999.90;;;999.90;;
78542;SDS011;67836;52.430;14.446;2023-05-29T09:22:55;1999.90;;;999.90;;
78542;SDS011;67836;52.430;14.446;2023-05-29T09:25:41;1999.90;;;999.90;;
78542;SDS011;67836;52.430;14.446;2023-05-29T09:28:28;1999.90;;;999.90;;
78542;SDS011;67836;52.430;14.446;2023-05-29T09:31:15;1999.90;;;999.90;;
78542;SDS011;67836;52.430;14.446;2023-05-29T09:34:01;1999.90;;;999.90;;
78542;SDS011;67836;52.430;14.446;2023-05-29T09:36:46;1516.03;;;765.42;;
78542;SDS011;67836;52.430;14.446;2023-05-29T09:39:30;81.90;;;78.55;;
78542;SDS011;67836;52.430;14.446;2023-05-29T09:42:14;1999.90;;;999.90;;
78542;SDS011;67836;52.430;14.446;2023-05-29T09:44:59;1999.90;;;999.90;;
78542;SDS011;67836;52.430;14.446;2023-05-29T09:47:45;1999.90;;;999.90;;
78542;SDS011;67836;52.430;14.446;2023-05-29T09:50:30;1999.90;;;999.90;;
78542;SDS011;67836;52.430;14.446;2023-05-29T09:53:24;1999.90;;;999.90;;
78542;SDS011;67836;52.430;14.446;2023-05-29T09:56:08;1999.90;;;999.90;;
78542;SDS011;67836;52.430;14.446;2023-05-29T09:58:53;1999.90;;;999.90;;
78542;SDS011;67836;52.430;14.446;2023-05-29T10:01:41;1999.90;;;999.90;;
78542;SDS011;67836;52.430;14.446;2023-05-29T10:04:27;1999.90;;;999.90;;
78542;SDS011;67836;52.430;14.446;2023-05-29T10:10:11;1999.90;;;999.90;;
78542;SDS011;67836;52.430;14.446;2023-05-29T10:12:55;22.58;;;21.38;;
78542;SDS011;67836;52.430;14.446;2023-05-29T10:15:40;1999.90;;;999.90;;
78542;SDS011;67836;52.430;14.446;2023-05-29T10:18:32;1999.90;;;999.90;;
78542;SDS011;67836;52.430;14.446;2023-05-29T10:21:19;1999.90;;;999.90;;
78542;SDS011;67836;52.430;14.446;2023-05-29T10:24:05;145.98;;;139.88;;
78542;SDS011;67836;52.430;14.446;2023-05-29T10:26:50;81.93;;;77.72;;
78542;SDS011;67836;52.430;14.446;2023-05-29T10:36:01;1012.15;;;511.55;;
78542;SDS011;67836;52.430;14.446;2023-05-29T10:38:59;132.90;;;126.20;;
78542;SDS011;67836;52.430;14.446;2023-05-29T10:41:44;89.88;;;86.47;;
78542;SDS011;67836;52.430;14.446;2023-05-29T10:47:22;1999.90;;;999.90;;
78542;SDS011;67836;52.430;14.446;2023-05-29T10:50:06;1516.47;;;765.38;;
78542;SDS011;67836;52.430;14.446;2023-05-29T10:52:50;1999.90;;;999.90;;
78542;SDS011;67836;52.430;14.446;2023-05-29T10:55:34;1999.90;;;999.90;;
78542;SDS011;67836;52.430;14.446;2023-05-29T10:58:20;1999.90;;;999.90;;
78542;SDS011;67836;52.430;14.446;2023-05-29T11:01:07;1015.47;;;514.75;;
78542;SDS011;67836;52.430;14.446;2023-05-29T11:03:53;1999.90;;;999.90;;
78542;SDS011;67836;52.430;14.446;2023-05-29T11:07:00;1999.90;;;999.90;;
78542;SDS011;67836;52.430;14.446;2023-05-29T11:09:47;1999.90;;;999.90;;
78542;SDS011;67836;52.430;14.446;2023-05-29T11:12:33;1504.82;;;754.55;;
78542;SDS011;67836;52.430;14.446;2023-05-29T11:15:19;1999.90;;;999.90;;
78542;SDS011;67836;52.430;14.446;2023-05-29T11:18:08;1999.90;;;999.90;;
78542;SDS011;67836;52.430;14.446;2023-05-29T11:23:44;578.30;;;325.25;;
78542;SDS011;67836;52.430;14.446;2023-05-29T11:26:29;191.57;;;182.95;;
78542;SDS011;67836;52.430;14.446;2023-05-29T11:29:13;1999.90;;;999.90;;
78542;SDS011;67836;52.430;14.446;2023-05-29T11:34:49;1999.90;;;999.90;;
78542;SDS011;67836;52.430;14.446;2023-05-29T11:37:43;532.33;;;281.00;;
78542;SDS011;67836;52.430;14.446;2023-05-29T11:40:29;1999.90;;;999.90;;
78542;SDS011;67836;52.430;14.446;2023-05-29T11:43:19;1999.90;;;999.90;;
78542;SDS011;67836;52.430;14.446;2023-05-29T11:46:14;1999.90;;;999.90;;
78542;SDS011;67836;52.430;14.446;2023-05-29T11:49:04;1999.90;;;999.90;;
78542;SDS011;67836;52.430;14.446;2023-05-29T11:51:48;85.18;;;80.65;;
78542;SDS011;67836;52.430;14.446;2023-05-29T11:54:32;1999.90;;;999.90;;
78542;SDS011;67836;52.430;14.446;2023-05-29T11:57:19;22.55;;;21.35;;
78542;SDS011;67836;52.430;14.446;2023-05-29T12:00:04;29.10;;;27.75;;
78542;SDS011;67836;52.430;14.446;2023-05-29T12:02:53;26.00;;;24.70;;
78542;SDS011;67836;52.430;14.446;2023-05-29T12:05:44;26.95;;;25.67;;
78542;SDS011;67836;52.430;14.446;2023-05-29T12:08:29;26.67;;;25.27;;
78542;SDS011;67836;52.430;14.446;2023-05-29T12:11:13;27.70;;;26.40;;
78542;SDS011;67836;52.430;14.446;2023-05-29T12:13:58;30.17;;;28.77;;
78542;SDS011;67836;52.430;14.446;2023-05-29T12:16:43;30.10;;;28.60;;
78542;SDS011;67836;52.430;14.446;2023-05-29T12:19:27;1999.90;;;999.90;;
78542;SDS011;67836;52.430;14.446;2023-05-29T12:22:11;1014.33;;;513.63;;
78542;SDS011;67836;52.430;14.446;2023-05-29T12:24:55;1048.78;;;546.60;;
78542;SDS011;67836;52.430;14.446;2023-05-29T12:27:42;1514.15;;;763.63;;
78542;SDS011;67836;52.430;14.446;2023-05-29T12:30:30;1999.90;;;999.90;;
78542;SDS011;67836;52.430;14.446;2023-05-29T12:33:24;1999.90;;;999.90;;
78542;SDS011;67836;52.430;14.446;2023-05-29T12:36:09;1999.90;;;999.90;;
78542;SDS011;67836;52.430;14.446;2023-05-29T12:38:55;1999.90;;;999.90;;
78542;SDS011;67836;52.430;14.446;2023-05-29T12:41:41;1999.90;;;999.90;;
78542;SDS011;67836;52.430;14.446;2023-05-29T12:44:25;39.00;;;37.30;;
78542;SDS011;67836;52.430;14.446;2023-05-29T12:47:09;45.70;;;43.67;;
78542;SDS011;67836;52.430;14.446;2023-05-29T12:49:53;45.47;;;43.67;;
78542;SDS011;67836;52.430;14.446;2023-05-29T12:52:39;46.58;;;44.78;;
78542;SDS011;67836;52.430;14.446;2023-05-29T12:55:24;48.00;;;46.15;;
78542;SDS011;67836;52.430;14.446;2023-05-29T12:58:09;52.78;;;50.67;;
78542;SDS011;67836;52.430;14.446;2023-05-29T13:00:54;55.25;;;53.05;;
78542;SDS011;67836;52.430;14.446;2023-05-29T13:03:41;51.00;;;48.92;;
78542;SDS011;67836;52.430;14.446;2023-05-29T13:06:25;54.72;;;52.65;;
78542;SDS011;67836;52.430;14.446;2023-05-29T13:09:09;52.17;;;50.08;;
78542;SDS011;67836;52.430;14.446;2023-05-29T13:11:54;47.17;;;45.28;;
78542;SDS011;67836;52.430;14.446;2023-05-29T13:14:38;1999.90;;;999.90;;
78542;SDS011;67836;52.430;14.446;2023-05-29T13:17:22;56.80;;;54.50;;
78542;SDS011;67836;52.430;14.446;2023-05-29T13:20:10;56.13;;;53.88;;
78542;SDS011;67836;52.430;14.446;2023-05-29T13:22:55;1999.90;;;999.90;;
78542;SDS011;67836;52.430;14.446;2023-05-29T13:25:39;1999.90;;;999.90;;
78542;SDS011;67836;52.430;14.446;2023-05-29T13:28:23;55.95;;;53.83;;
78542;SDS011;67836;52.430;14.446;2023-05-29T13:31:07;56.58;;;54.38;;
78542;SDS011;67836;52.430;14.446;2023-05-29T13:33:52;1511.55;;;761.08;;
78542;SDS011;67836;52.430;14.446;2023-05-29T13:36:36;1999.90;;;999.90;;
78542;SDS011;67836;52.430;14.446;2023-05-29T13:39:20;152.43;;;144.57;;
78542;SDS011;67836;52.430;14.446;2023-05-29T13:42:05;1999.90;;;999.90;;
78542;SDS011;67836;52.430;14.446;2023-05-29T13:44:50;1045.75;;;543.63;;
78542;SDS011;67836;52.430;14.446;2023-05-29T13:47:35;1999.90;;;999.90;;
78542;SDS011;67836;52.430;14.446;2023-05-29T13:50:19;1032.50;;;531.25;;
78542;SDS011;67836;52.430;14.446;2023-05-29T13:53:06;1999.90;;;999.90;;
78542;SDS011;67836;52.430;14.446;2023-05-29T13:55:50;1514.57;;;763.80;;
78542;SDS011;67836;52.430;14.446;2023-05-29T13:58:34;51.40;;;49.40;;
78542;SDS011;67836;52.430;14.446;2023-05-29T14:01:18;99.38;;;95.47;;
78542;SDS011;67836;52.430;14.446;2023-05-29T14:04:05;37.45;;;35.90;;
78542;SDS011;67836;52.430;14.446;2023-05-29T14:06:50;41.80;;;40.00;;
78542;SDS011;67836;52.430;14.446;2023-05-29T14:09:34;1999.90;;;999.90;;
78542;SDS011;67836;52.430;14.446;2023-05-29T14:12:18;1037.38;;;535.88;;
78542;SDS011;67836;52.430;14.446;2023-05-29T14:15:03;28.35;;;27.15;;
78542;SDS011;67836;52.430;14.446;2023-05-29T14:17:47;1516.43;;;765.78;;
78542;SDS011;67836;52.430;14.446;2023-05-29T14:20:31;41.25;;;39.58;;
78542;SDS011;67836;52.430;14.446;2023-05-29T14:23:16;1024.68;;;523.72;;
78542;SDS011;67836;52.430;14.446;2023-05-29T14:26:01;59.08;;;56.60;;
78542;SDS011;67836;52.430;14.446;2023-05-29T14:28:45;1999.90;;;999.90;;
78542;SDS011;67836;52.430;14.446;2023-05-29T14:31:29;29.88;;;28.38;;
78542;SDS011;67836;52.430;14.446;2023-05-29T14:34:14;1048.05;;;546.08;;
78542;SDS011;67836;52.430;14.446;2023-05-29T14:36:58;1999.90;;;999.90;;
78542;SDS011;67836;52.430;14.446;2023-05-29T14:39:42;115.32;;;111.15;;
78542;SDS011;67836;52.430;14.446;2023-05-29T14:42:27;1999.90;;;999.90;;
78542;SDS011;67836;52.430;14.446;2023-05-29T14:45:11;1999.90;;;999.90;;
78542;SDS011;67836;52.430;14.446;2023-05-29T14:47:55;1999.90;;;999.90;;
78542;SDS011;67836;52.430;14.446;2023-05-29T14:50:39;1999.90;;;999.90;;
78542;SDS011;67836;52.430;14.446;2023-05-29T14:53:23;1999.90;;;999.90;;
78542;SDS011;67836;52.430;14.446;2023-05-29T14:56:07;1516.30;;;765.58;;
78542;SDS011;67836;52.430;14.446;2023-05-29T14:58:51;1999.90;;;999.90;;
78542;SDS011;67836;52.430;14.446;2023-05-29T15:01:36;223.10;;;212.27;;
78542;SDS011;67836;52.430;14.446;2023-05-29T15:04:20;167.18;;;157.10;;
78542;SDS011;67836;52.430;14.446;2023-05-29T15:07:04;1999.90;;;999.90;;
78542;SDS011;67836;52.430;14.446;2023-05-29T15:09:48;1999.90;;;999.90;;
78542;SDS011;67836;52.430;14.446;2023-05-29T15:12:32;1999.90;;;999.90;;
78542;SDS011;67836;52.430;14.446;2023-05-29T15:15:16;44.75;;;34.72;;
78542;SDS011;67836;52.430;14.446;2023-05-29T15:18:00;621.78;;;362.85;;
78542;SDS011;67836;52.430;14.446;2023-05-29T15:20:44;1999.90;;;999.90;;
78542;SDS011;67836;52.430;14.446;2023-05-29T15:23:28;1999.90;;;999.90;;
78542;SDS011;67836;52.430;14.446;2023-05-29T15:26:13;1999.90;;;999.90;;
78542;SDS011;67836;52.430;14.446;2023-05-29T15:28:57;1083.03;;;574.85;;
78542;SDS011;67836;52.430;14.446;2023-05-29T15:31:41;1999.90;;;999.90;;
78542;SDS011;67836;52.430;14.446;2023-05-29T15:34:25;1999.90;;;999.90;;
78542;SDS011;67836;52.430;14.446;2023-05-29T15:37:09;1999.90;;;999.90;;
78542;SDS011;67836;52.430;14.446;2023-05-29T15:39:56;1999.90;;;999.90;;
78542;SDS011;67836;52.430;14.446;2023-05-29T15:42:40;1999.90;;;999.90;;
78542;SDS011;67836;52.430;14.446;2023-05-29T15:45:24;1999.90;;;999.90;;
78542;SDS011;67836;52.430;14.446;2023-05-29T15:48:09;1999.90;;;999.90;;
78542;SDS011;67836;52.430;14.446;2023-05-29T15:50:53;1074.47;;;564.55;;
78542;SDS011;67836;52.430;14.446;2023-05-29T15:53:37;1999.90;;;999.90;;
78542;SDS011;67836;52.430;14.446;2023-05-29T15:56:21;27.10;;;19.73;;
78542;SDS011;67836;52.430;14.446;2023-05-29T15:59:10;1999.90;;;999.90;;
78542;SDS011;67836;52.430;14.446;2023-05-29T16:01:54;1510.65;;;757.22;;
78542;SDS011;67836;52.430;14.446;2023-05-29T16:04:38;1518.70;;;764.50;;
78542;SDS011;67836;52.430;14.446;2023-05-29T16:07:22;1999.90;;;999.90;;
78542;SDS011;67836;52.430;14.446;2023-05-29T16:10:07;1999.90;;;999.90;;
78542;SDS011;67836;52.430;14.446;2023-05-29T16:12:51;1501.15;;;751.03;;
78542;SDS011;67836;52.430;14.446;2023-05-29T16:15:35;1999.90;;;999.90;;
78542;SDS011;67836;52.430;14.446;2023-05-29T16:18:18;1999.90;;;999.90;;
78542;SDS011;67836;52.430;14.446;2023-05-29T16:21:02;1999.90;;;999.90;;
78542;SDS011;67836;52.430;14.446;2023-05-29T16:23:46;1502.28;;;752.03;;
78542;SDS011;67836;52.430;14.446;2023-05-29T16:26:30;1999.90;;;999.90;;
78542;SDS011;67836;52.430;14.446;2023-05-29T16:29:14;1999.90;;;999.90;;
78542;SDS011;67836;52.430;14.446;2023-05-29T16:31:58;1999.90;;;999.90;;
78542;SDS011;67836;52.430;14.446;2023-05-29T16:34:43;1047.40;;;538.63;;
78542;SDS011;67836;52.430;14.446;2023-05-29T16:37:27;1999.90;;;999.90;;
78542;SDS011;67836;52.430;14.446;2023-05-29T16:40:11;1509.65;;;754.25;;
78542;SDS011;67836;52.430;14.446;2023-05-29T16:42:56;1999.90;;;999.90;;
78542;SDS011;67836;52.430;14.446;2023-05-29T16:45:40;1019.92;;;509.80;;
78542;SDS011;67836;52.430;14.446;2023-05-29T16:48:24;1999.90;;;999.90;;
78542;SDS011;67836;52.430;14.446;2023-05-29T16:51:08;1999.90;;;999.90;;
78542;SDS011;67836;52.430;14.446;2023-05-29T16:53:52;1999.90;;;999.90;;
78542;SDS011;67836;52.430;14.446;2023-05-29T16:56:36;1999.90;;;999.90;;
78542;SDS011;67836;52.430;14.446;2023-05-29T16:59:23;1999.90;;;999.90;;
78542;SDS011;67836;52.430;14.446;2023-05-29T17:02:07;1999.90;;;999.90;;